Des Moines, IA

2:35 PM CST on March 02, 2015 (GMT -0600)
PINEHILL | Change Station
CLOSE
Current Station
Personal Weather Station
Location: Des Moines, IA
Elevation: 852 ft
Nearby Weather Stations

Elev 852 ft 41.65 °N, 93.63 °W | Updated 2 minutes ago

Overcast
Overcast
32.5 °F
Feels Like 32 °F
N
2.7
Wind Variable Wind from SSE

Today
High -- | Low -- °F
--% Chance of Precip.
Yesterday
High -- | Low -- °F
Precip. -- in
6:47 AM 6:05 PM
Waxing Gibbous, 93% visible
Pressure 30.37 in
Visibility 9.0 miles
Clouds Mostly Cloudy 8000 ft
Overcast 9000 ft
Windchill 32 °F
Dew Point 17 °F
Humidity 52%
Rainfall 0.00 in
Snow Depth Not available.
UV 1 out of 12
Pollen .50 out of 12
Air Quality Not available.
Flu Activity Not available.
METAR KIKV 022015Z AUTO 12008KT 9SM BKN080 OVC090 M01/M08 A3037 RMK AO2

More Conditions Fewer Conditions

Pressure 30.37 in
Visibility 9.0 miles
Clouds Mostly Cloudy 8000 ft
Overcast 9000 ft
Windchill 32 °F
Dew Point 17 °F
Humidity 52%
Rainfall 0.00 in
Snow Depth Not available.
UV 1 out of 12
Pollen .50 out of 12
Air Quality Not available.
Flu Activity Not available.
METAR KIKV 022015Z AUTO 12008KT 9SM BKN080 OVC090 M01/M08 A3037 RMK AO2

More Conditions Fewer Conditions

10-Day Weather Forecast

Almanac

Astronomy

Mar. 02, 2015 Rise Set
Actual Time
Civil Twilight
Nautical Twilight
Astronomical Twilight
Moon
Length of Visible Light
Length of Day
Tomorrow will be .
, % of the Moon is Illuminated

Today's Extremes

State Highs State Lows

Community

WunderPhotos

Upload Photos

1,801,939 photos uploaded!

WunderBlogs® & News

Nearby

Air Quality

  Air Quality AQ Index Pollutant
Not available.

Snow Depth

Station Depth Elevation

Earthquake Activity

City Distance Mag. Time & Date
Minimum magnitude displayed is 2.5.

Coastal Water Temperatures

Place Temperature

Nearby Weather Stations